createdAt,value
2019-03-09T00:03:27.037Z,5.90
2019-03-09T00:07:34.340Z,5.90
2019-03-09T00:11:44.028Z,5.70
2019-03-09T00:15:50.784Z,5.80
2019-03-09T00:20:43.682Z,5.70
2019-03-09T00:24:58.847Z,5.80
2019-03-09T00:29:18.611Z,5.90
2019-03-09T00:33:24.956Z,5.90
2019-03-09T00:37:31.714Z,6.00
2019-03-09T00:41:39.890Z,6.00
2019-03-09T00:45:47.264Z,6.00
2019-03-09T00:49:53.727Z,6.10
2019-03-09T00:54:02.280Z,6.20
2019-03-09T00:58:08.600Z,6.10
2019-03-09T01:02:19.287Z,6.10
2019-03-09T01:06:25.594Z,5.80
2019-03-09T01:10:32.092Z,6.00
2019-03-09T01:14:39.678Z,6.20
2019-03-09T01:18:48.258Z,6.20
2019-03-09T01:22:55.619Z,6.10
2019-03-09T01:27:01.424Z,6.10
2019-03-09T01:31:08.204Z,6.00
2019-03-09T01:35:19.245Z,6.00
2019-03-09T01:39:23.759Z,5.90
2019-03-09T01:43:30.579Z,5.80
2019-03-09T01:47:40.019Z,5.80
2019-03-09T01:51:46.943Z,5.80
2019-03-09T01:55:54.751Z,5.70
2019-03-09T02:00:01.104Z,5.80
2019-03-09T02:04:13.475Z,5.50
2019-03-09T02:08:20.482Z,5.70
2019-03-09T02:12:26.790Z,5.60
2019-03-09T02:16:37.392Z,5.40
2019-03-09T02:20:43.700Z,5.70
2019-03-09T02:24:53.249Z,5.70
2019-03-09T02:29:01.099Z,5.60
2019-03-09T02:33:08.910Z,5.60
2019-03-09T02:37:18.144Z,5.70
2019-03-09T02:41:26.731Z,5.50
2019-03-09T02:45:33.444Z,5.30
2019-03-09T02:49:40.029Z,5.30
2019-03-09T02:53:47.649Z,5.20
2019-03-09T02:57:55.726Z,5.20
2019-03-09T03:02:15.640Z,5.30
2019-03-09T03:06:23.506Z,5.30
2019-03-09T03:10:38.031Z,5.40
2019-03-09T03:14:44.576Z,5.50
2019-03-09T03:18:52.263Z,5.50
2019-03-09T03:23:01.205Z,5.60
2019-03-09T03:27:07.520Z,5.80
2019-03-09T03:31:15.970Z,5.70
2019-03-09T03:35:30.739Z,5.60
2019-03-09T03:39:33.632Z,5.50
2019-03-09T03:43:40.182Z,5.50
2019-03-09T03:47:48.465Z,5.40
2019-03-09T03:51:54.900Z,5.50
2019-03-09T03:56:02.030Z,5.20
2019-03-09T04:00:10.235Z,5.30
2019-03-09T04:04:19.527Z,5.10
2019-03-09T04:08:29.828Z,4.90
2019-03-09T04:12:38.369Z,5.10
2019-03-09T04:16:44.671Z,5.10
2019-03-09T04:20:57.801Z,5.10
2019-03-09T04:25:04.723Z,5.00
2019-03-09T04:29:15.425Z,5.10
2019-03-09T04:33:22.191Z,5.10
2019-03-09T04:37:29.648Z,5.00
2019-03-09T04:41:38.743Z,5.00
2019-03-09T04:45:45.845Z,4.70
2019-03-09T04:49:53.966Z,5.00
2019-03-09T04:58:52.683Z,5.00
2019-03-09T05:03:02.565Z,5.00
2019-03-09T05:07:10.548Z,4.90
2019-03-09T05:11:20.954Z,4.80
2019-03-09T05:15:28.577Z,4.90
2019-03-09T05:19:34.907Z,4.90
2019-03-09T05:23:43.813Z,5.00
2019-03-09T05:27:50.960Z,5.00
2019-03-09T05:32:01.444Z,5.10
2019-03-09T05:36:12.758Z,5.10
2019-03-09T05:40:20.225Z,5.00
2019-03-09T05:44:26.516Z,5.10
2019-03-09T05:48:37.153Z,5.10
2019-03-09T05:52:44.206Z,5.30
2019-03-09T05:56:50.987Z,5.20
2019-03-09T06:00:57.417Z,5.00
2019-03-09T06:05:04.562Z,5.20
2019-03-09T06:09:12.631Z,5.40
2019-03-09T06:13:22.023Z,5.50
2019-03-09T06:17:31.435Z,5.60
2019-03-09T06:21:39.371Z,5.50
2019-03-09T06:25:45.759Z,5.70
2019-03-09T06:30:13.840Z,6.00
2019-03-09T06:34:20.184Z,6.10
2019-03-09T06:39:05.578Z,6.10
2019-03-09T06:43:32.801Z,5.90
2019-03-09T06:47:40.274Z,6.10
2019-03-09T06:51:46.577Z,6.40
2019-03-09T06:55:54.985Z,6.50
2019-03-09T07:00:03.153Z,6.70
2019-03-09T07:04:12.577Z,6.80
2019-03-09T07:08:19.278Z,6.70
2019-03-09T07:12:26.348Z,7.00
2019-03-09T07:16:36.605Z,7.00
2019-03-09T07:20:46.316Z,7.00
2019-03-09T07:25:11.561Z,7.30
2019-03-09T07:29:21.415Z,7.30
2019-03-09T07:33:31.374Z,7.50
2019-03-09T07:37:38.578Z,7.40
2019-03-09T07:41:44.967Z,8.10
2019-03-09T07:45:55.216Z,8.30
2019-03-09T07:50:04.261Z,8.50
2019-03-09T07:54:17.880Z,8.50
2019-03-09T07:58:25.454Z,8.60
2019-03-09T08:06:41.763Z,8.60
2019-03-09T08:10:49.485Z,8.60
2019-03-09T08:15:00.525Z,8.80
2019-03-09T08:19:08.776Z,8.80
2019-03-09T08:23:16.129Z,8.70
2019-03-09T08:27:22.914Z,8.80
2019-03-09T08:31:29.338Z,8.60
2019-03-09T08:35:36.409Z,8.60
2019-03-09T08:39:42.712Z,8.70
2019-03-09T08:43:51.395Z,8.70
2019-03-09T08:47:58.102Z,7.80
2019-03-09T08:52:08.602Z,8.80
2019-03-09T08:56:15.828Z,9.20
2019-03-09T09:00:27.283Z,9.30
2019-03-09T09:04:38.704Z,9.30
2019-03-09T09:08:46.318Z,9.50
2019-03-09T09:25:28.865Z,10.70
2019-03-09T09:29:41.216Z,11.00
2019-03-09T09:33:48.911Z,11.10
2019-03-09T09:37:55.478Z,11.10
2019-03-09T09:42:06.055Z,11.40
2019-03-09T09:46:14.051Z,11.40
2019-03-09T09:50:23.183Z,10.90
2019-03-09T10:07:50.169Z,11.50
2019-03-09T10:12:01.701Z,11.60
2019-03-09T10:25:20.071Z,12.20
2019-03-09T10:29:30.767Z,12.30
2019-03-09T11:00:38.139Z,11.80
2019-03-09T11:04:45.378Z,11.90
2019-03-09T11:08:55.994Z,11.80
2019-03-09T11:13:02.800Z,11.70
2019-03-09T11:17:09.862Z,11.70
2019-03-09T11:21:36.713Z,11.70
2019-03-09T11:25:46.373Z,11.90
2019-03-09T11:38:36.308Z,12.00
2019-03-09T11:51:43.407Z,11.70
2019-03-09T11:55:49.795Z,11.50
2019-03-09T11:59:56.320Z,11.20
2019-03-09T12:04:05.129Z,11.40
2019-03-09T12:17:18.084Z,11.40
2019-03-09T13:00:40.537Z,8.00
2019-03-09T13:05:18.985Z,8.10
2019-03-09T13:09:26.801Z,8.10
2019-03-09T13:13:33.133Z,7.90
2019-03-09T13:17:43.784Z,7.80
2019-03-09T13:21:52.380Z,7.60
2019-03-09T13:25:59.226Z,7.50
2019-03-09T13:30:12.774Z,7.00
2019-03-09T13:34:35.491Z,6.90
2019-03-09T13:38:41.887Z,6.90
2019-03-09T13:42:51.932Z,7.00
2019-03-09T13:47:04.367Z,6.90
2019-03-09T13:51:12.616Z,6.80
2019-03-09T13:55:19.108Z,6.70
2019-03-09T13:59:31.512Z,6.90
2019-03-09T14:03:39.734Z,6.90
2019-03-09T14:07:46.365Z,7.10
2019-03-09T14:11:53.266Z,6.90
2019-03-09T14:16:00.310Z,7.00
2019-03-09T14:20:12.707Z,7.30
2019-03-09T14:24:21.119Z,7.40
2019-03-09T14:28:27.452Z,7.30
2019-03-09T14:32:40.109Z,7.20
2019-03-09T14:36:46.436Z,7.00
2019-03-09T14:40:53.856Z,6.10
2019-03-09T14:45:01.823Z,5.00
2019-03-09T14:49:10.305Z,5.00
2019-03-09T15:42:08.026Z,5.50
2019-03-09T15:59:40.101Z,5.10
2019-03-09T16:03:51.506Z,5.00
2019-03-09T16:07:58.068Z,4.80
2019-03-09T16:12:04.540Z,4.70
2019-03-09T16:50:53.652Z,5.10
2019-03-09T16:59:22.335Z,5.20
2019-03-09T17:03:30.711Z,5.20
2019-03-09T17:07:40.048Z,5.10
2019-03-09T17:11:46.665Z,5.20
2019-03-09T17:15:56.881Z,5.20
2019-03-09T17:20:06.067Z,5.30
2019-03-09T17:28:23.816Z,5.30
2019-03-09T17:32:30.756Z,5.20
2019-03-09T17:36:38.537Z,5.20
2019-03-09T17:40:46.598Z,5.10
2019-03-09T17:44:56.690Z,5.20
2019-03-09T17:49:07.228Z,5.30
2019-03-09T18:02:03.661Z,5.40
2019-03-09T18:06:10.317Z,5.50
2019-03-09T18:10:26.657Z,5.40
2019-03-09T18:14:37.520Z,5.30
2019-03-09T18:18:46.341Z,5.60
2019-03-09T18:22:52.788Z,5.60
2019-03-09T18:27:02.476Z,5.70
2019-03-09T18:44:15.903Z,5.80
2019-03-09T18:48:22.406Z,5.80
2019-03-09T18:52:34.875Z,6.00
2019-03-09T18:56:45.941Z,6.10
2019-03-09T19:00:58.207Z,5.90
2019-03-09T19:05:06.553Z,5.70
2019-03-09T19:09:32.607Z,5.90
2019-03-09T19:13:43.197Z,5.90
2019-03-09T19:18:02.016Z,5.70
2019-03-09T19:22:10.777Z,5.80
2019-03-09T19:30:40.555Z,5.70
2019-03-09T19:34:49.041Z,6.00
2019-03-09T19:38:56.927Z,5.70
2019-03-09T19:43:06.463Z,5.70
2019-03-09T19:47:17.087Z,5.70
2019-03-09T20:01:22.604Z,5.70
2019-03-09T20:05:33.288Z,5.60
2019-03-09T20:09:39.821Z,5.70
2019-03-09T20:13:49.858Z,5.90
2019-03-09T20:17:58.863Z,6.00
2019-03-09T20:22:45.214Z,6.00
2019-03-09T20:57:15.730Z,6.50
2019-03-09T21:01:22.129Z,6.70
2019-03-09T21:05:30.587Z,6.70
2019-03-09T21:09:37.969Z,6.70
2019-03-09T21:13:45.431Z,6.70
2019-03-09T21:17:54.653Z,6.60
2019-03-09T21:30:27.913Z,6.70
2019-03-09T21:34:46.774Z,6.60
2019-03-09T21:39:12.378Z,6.50
2019-03-09T21:43:33.893Z,6.50
2019-03-09T22:05:19.547Z,6.60
2019-03-09T22:09:29.726Z,6.50
2019-03-09T22:18:01.883Z,6.50
2019-03-09T22:30:59.060Z,6.50
2019-03-09T22:35:07.084Z,6.50
2019-03-09T22:43:21.693Z,6.70
2019-03-09T22:47:33.772Z,6.70
2019-03-09T22:51:41.206Z,6.60
2019-03-09T22:55:49.787Z,6.50
2019-03-09T22:59:58.447Z,6.50
2019-03-09T23:08:16.793Z,6.30
2019-03-09T23:38:38.595Z,6.80
2019-03-09T23:42:45.583Z,6.80
2019-03-09T23:46:53.826Z,6.70
2019-03-09T23:59:27.398Z,6.60
